sensor_id;sensor_type;location;lat;lon;timestamp;P1;durP1;ratioP1;P2;durP2;ratioP2
8488;SDS011;4281;45.772;12.852;2023-06-14T00:00:12;4.70;;;4.40;;
8488;SDS011;4281;45.772;12.852;2023-06-14T00:02:41;4.60;;;4.20;;
8488;SDS011;4281;45.772;12.852;2023-06-14T00:05:10;4.93;;;4.53;;
8488;SDS011;4281;45.772;12.852;2023-06-14T00:07:39;4.73;;;4.17;;
8488;SDS011;4281;45.772;12.852;2023-06-14T00:10:10;4.10;;;3.80;;
8488;SDS011;4281;45.772;12.852;2023-06-14T00:12:39;4.77;;;4.37;;
8488;SDS011;4281;45.772;12.852;2023-06-14T00:15:09;4.27;;;3.90;;
8488;SDS011;4281;45.772;12.852;2023-06-14T00:17:37;4.47;;;4.07;;
8488;SDS011;4281;45.772;12.852;2023-06-14T00:20:06;4.57;;;4.27;;
8488;SDS011;4281;45.772;12.852;2023-06-14T00:22:34;4.10;;;3.80;;
8488;SDS011;4281;45.772;12.852;2023-06-14T00:25:03;4.03;;;3.73;;
8488;SDS011;4281;45.772;12.852;2023-06-14T00:27:52;4.23;;;3.93;;
8488;SDS011;4281;45.772;12.852;2023-06-14T00:30:21;4.30;;;4.00;;
8488;SDS011;4281;45.772;12.852;2023-06-14T00:32:49;4.33;;;3.80;;
8488;SDS011;4281;45.772;12.852;2023-06-14T00:35:18;4.23;;;3.90;;
8488;SDS011;4281;45.772;12.852;2023-06-14T00:37:46;3.80;;;3.50;;
8488;SDS011;4281;45.772;12.852;2023-06-14T00:40:14;4.00;;;3.70;;
8488;SDS011;4281;45.772;12.852;2023-06-14T00:42:42;4.87;;;3.57;;
8488;SDS011;4281;45.772;12.852;2023-06-14T00:45:10;4.10;;;3.80;;
8488;SDS011;4281;45.772;12.852;2023-06-14T00:47:40;4.03;;;3.60;;
8488;SDS011;4281;45.772;12.852;2023-06-14T00:50:09;3.77;;;3.50;;
8488;SDS011;4281;45.772;12.852;2023-06-14T00:52:37;3.43;;;3.17;;
8488;SDS011;4281;45.772;12.852;2023-06-14T00:55:06;3.57;;;3.27;;
8488;SDS011;4281;45.772;12.852;2023-06-14T00:57:34;3.53;;;3.23;;
8488;SDS011;4281;45.772;12.852;2023-06-14T01:00:04;3.33;;;3.10;;
8488;SDS011;4281;45.772;12.852;2023-06-14T01:02:35;3.27;;;2.97;;
8488;SDS011;4281;45.772;12.852;2023-06-14T01:05:05;3.77;;;3.47;;
8488;SDS011;4281;45.772;12.852;2023-06-14T01:07:36;3.20;;;3.00;;
8488;SDS011;4281;45.772;12.852;2023-06-14T01:10:15;3.10;;;2.80;;
8488;SDS011;4281;45.772;12.852;2023-06-14T01:12:51;3.07;;;2.87;;
8488;SDS011;4281;45.772;12.852;2023-06-14T01:15:22;3.33;;;3.13;;
8488;SDS011;4281;45.772;12.852;2023-06-14T01:17:50;3.10;;;2.90;;
8488;SDS011;4281;45.772;12.852;2023-06-14T01:20:22;3.53;;;3.23;;
8488;SDS011;4281;45.772;12.852;2023-06-14T01:22:54;3.30;;;3.10;;
8488;SDS011;4281;45.772;12.852;2023-06-14T01:25:22;3.30;;;3.00;;
8488;SDS011;4281;45.772;12.852;2023-06-14T01:27:52;3.10;;;2.90;;
8488;SDS011;4281;45.772;12.852;2023-06-14T01:30:21;3.73;;;3.23;;
8488;SDS011;4281;45.772;12.852;2023-06-14T01:32:52;3.20;;;3.00;;
8488;SDS011;4281;45.772;12.852;2023-06-14T01:35:21;3.33;;;3.13;;
8488;SDS011;4281;45.772;12.852;2023-06-14T01:37:49;3.30;;;3.00;;
8488;SDS011;4281;45.772;12.852;2023-06-14T01:40:19;3.13;;;2.93;;
8488;SDS011;4281;45.772;12.852;2023-06-14T01:42:49;3.10;;;2.90;;
8488;SDS011;4281;45.772;12.852;2023-06-14T01:45:18;3.33;;;3.13;;
8488;SDS011;4281;45.772;12.852;2023-06-14T01:47:46;3.40;;;3.17;;
8488;SDS011;4281;45.772;12.852;2023-06-14T01:50:14;3.33;;;3.03;;
8488;SDS011;4281;45.772;12.852;2023-06-14T01:52:43;3.40;;;3.10;;
8488;SDS011;4281;45.772;12.852;2023-06-14T01:55:11;4.10;;;3.30;;
8488;SDS011;4281;45.772;12.852;2023-06-14T01:57:40;3.50;;;3.20;;
8488;SDS011;4281;45.772;12.852;2023-06-14T02:00:09;3.70;;;3.40;;
8488;SDS011;4281;45.772;12.852;2023-06-14T02:02:39;3.60;;;3.40;;
8488;SDS011;4281;45.772;12.852;2023-06-14T02:05:07;3.10;;;2.90;;
8488;SDS011;4281;45.772;12.852;2023-06-14T02:07:36;3.40;;;3.10;;
8488;SDS011;4281;45.772;12.852;2023-06-14T02:10:05;3.63;;;3.33;;
8488;SDS011;4281;45.772;12.852;2023-06-14T02:12:33;3.73;;;3.40;;
8488;SDS011;4281;45.772;12.852;2023-06-14T02:15:02;3.50;;;3.20;;
8488;SDS011;4281;45.772;12.852;2023-06-14T02:17:32;3.30;;;3.10;;
8488;SDS011;4281;45.772;12.852;2023-06-14T02:20:00;3.30;;;3.07;;
8488;SDS011;4281;45.772;12.852;2023-06-14T02:22:31;3.70;;;3.40;;
8488;SDS011;4281;45.772;12.852;2023-06-14T02:24:59;3.43;;;3.23;;
8488;SDS011;4281;45.772;12.852;2023-06-14T02:27:28;3.77;;;3.40;;
8488;SDS011;4281;45.772;12.852;2023-06-14T02:29:56;3.80;;;3.40;;
8488;SDS011;4281;45.772;12.852;2023-06-14T02:32:25;4.00;;;3.70;;
8488;SDS011;4281;45.772;12.852;2023-06-14T02:34:53;3.33;;;3.13;;
8488;SDS011;4281;45.772;12.852;2023-06-14T02:37:21;4.00;;;3.70;;
8488;SDS011;4281;45.772;12.852;2023-06-14T02:39:49;3.93;;;3.63;;
8488;SDS011;4281;45.772;12.852;2023-06-14T02:42:17;3.50;;;3.30;;
8488;SDS011;4281;45.772;12.852;2023-06-14T02:44:45;3.87;;;3.57;;
8488;SDS011;4281;45.772;12.852;2023-06-14T02:47:17;3.60;;;3.40;;
8488;SDS011;4281;45.772;12.852;2023-06-14T02:49:46;3.97;;;3.57;;
8488;SDS011;4281;45.772;12.852;2023-06-14T02:52:14;3.90;;;3.60;;
8488;SDS011;4281;45.772;12.852;2023-06-14T02:54:43;3.83;;;3.53;;
8488;SDS011;4281;45.772;12.852;2023-06-14T02:57:10;3.73;;;3.43;;
8488;SDS011;4281;45.772;12.852;2023-06-14T02:59:38;3.70;;;3.40;;
8488;SDS011;4281;45.772;12.852;2023-06-14T03:02:06;4.27;;;3.87;;
8488;SDS011;4281;45.772;12.852;2023-06-14T03:04:34;4.27;;;3.97;;
8488;SDS011;4281;45.772;12.852;2023-06-14T03:07:05;4.37;;;3.83;;
8488;SDS011;4281;45.772;12.852;2023-06-14T03:09:35;3.87;;;3.57;;
8488;SDS011;4281;45.772;12.852;2023-06-14T03:12:04;4.17;;;3.83;;
8488;SDS011;4281;45.772;12.852;2023-06-14T03:14:33;4.03;;;3.73;;
8488;SDS011;4281;45.772;12.852;2023-06-14T03:17:02;4.07;;;3.67;;
8488;SDS011;4281;45.772;12.852;2023-06-14T03:19:31;3.90;;;3.60;;
8488;SDS011;4281;45.772;12.852;2023-06-14T03:21:59;3.80;;;3.40;;
8488;SDS011;4281;45.772;12.852;2023-06-14T03:24:30;4.10;;;3.80;;
8488;SDS011;4281;45.772;12.852;2023-06-14T03:27:03;3.87;;;3.57;;
8488;SDS011;4281;45.772;12.852;2023-06-14T03:29:31;3.90;;;3.60;;
8488;SDS011;4281;45.772;12.852;2023-06-14T03:32:00;3.83;;;3.47;;
8488;SDS011;4281;45.772;12.852;2023-06-14T03:34:29;3.90;;;3.53;;
8488;SDS011;4281;45.772;12.852;2023-06-14T03:36:57;4.30;;;4.00;;
8488;SDS011;4281;45.772;12.852;2023-06-14T03:39:25;3.63;;;3.33;;
8488;SDS011;4281;45.772;12.852;2023-06-14T03:41:54;3.97;;;3.40;;
8488;SDS011;4281;45.772;12.852;2023-06-14T03:44:22;3.73;;;3.43;;
8488;SDS011;4281;45.772;12.852;2023-06-14T03:46:50;4.20;;;3.90;;
8488;SDS011;4281;45.772;12.852;2023-06-14T03:49:18;3.97;;;3.67;;
8488;SDS011;4281;45.772;12.852;2023-06-14T03:51:46;3.80;;;3.50;;
8488;SDS011;4281;45.772;12.852;2023-06-14T03:54:18;4.10;;;3.80;;
8488;SDS011;4281;45.772;12.852;2023-06-14T03:57:07;4.30;;;4.00;;
8488;SDS011;4281;45.772;12.852;2023-06-14T03:59:35;3.90;;;3.60;;
8488;SDS011;4281;45.772;12.852;2023-06-14T04:02:03;3.90;;;3.60;;
8488;SDS011;4281;45.772;12.852;2023-06-14T04:04:31;4.23;;;3.60;;
8488;SDS011;4281;45.772;12.852;2023-06-14T04:07:01;3.70;;;3.40;;
8488;SDS011;4281;45.772;12.852;2023-06-14T04:09:29;4.00;;;3.70;;
8488;SDS011;4281;45.772;12.852;2023-06-14T04:11:57;4.50;;;4.10;;
8488;SDS011;4281;45.772;12.852;2023-06-14T04:14:26;3.27;;;3.07;;
8488;SDS011;4281;45.772;12.852;2023-06-14T04:16:55;4.00;;;3.67;;
8488;SDS011;4281;45.772;12.852;2023-06-14T04:19:22;3.87;;;3.57;;
8488;SDS011;4281;45.772;12.852;2023-06-14T04:21:50;3.93;;;3.57;;
8488;SDS011;4281;45.772;12.852;2023-06-14T04:24:18;3.60;;;3.40;;
8488;SDS011;4281;45.772;12.852;2023-06-14T04:26:46;4.00;;;3.60;;
8488;SDS011;4281;45.772;12.852;2023-06-14T04:29:15;3.80;;;3.50;;
8488;SDS011;4281;45.772;12.852;2023-06-14T04:31:47;3.30;;;3.10;;
8488;SDS011;4281;45.772;12.852;2023-06-14T04:34:15;4.07;;;3.70;;
8488;SDS011;4281;45.772;12.852;2023-06-14T04:36:44;4.03;;;3.50;;
8488;SDS011;4281;45.772;12.852;2023-06-14T04:39:15;3.90;;;3.60;;
8488;SDS011;4281;45.772;12.852;2023-06-14T04:41:44;3.60;;;3.30;;
8488;SDS011;4281;45.772;12.852;2023-06-14T04:44:13;3.67;;;3.37;;
8488;SDS011;4281;45.772;12.852;2023-06-14T04:46:43;3.40;;;3.10;;
8488;SDS011;4281;45.772;12.852;2023-06-14T04:49:14;3.10;;;2.90;;
8488;SDS011;4281;45.772;12.852;2023-06-14T04:51:42;3.63;;;3.00;;
8488;SDS011;4281;45.772;12.852;2023-06-14T04:54:10;3.70;;;3.40;;
8488;SDS011;4281;45.772;12.852;2023-06-14T04:56:40;4.00;;;3.60;;
8488;SDS011;4281;45.772;12.852;2023-06-14T04:59:08;3.90;;;3.60;;
8488;SDS011;4281;45.772;12.852;2023-06-14T05:01:38;3.93;;;3.53;;
8488;SDS011;4281;45.772;12.852;2023-06-14T05:04:06;3.57;;;3.37;;
8488;SDS011;4281;45.772;12.852;2023-06-14T05:06:35;3.53;;;3.23;;
8488;SDS011;4281;45.772;12.852;2023-06-14T05:09:03;3.60;;;3.30;;
8488;SDS011;4281;45.772;12.852;2023-06-14T05:11:31;3.57;;;3.27;;
8488;SDS011;4281;45.772;12.852;2023-06-14T05:13:59;3.60;;;3.30;;
8488;SDS011;4281;45.772;12.852;2023-06-14T05:16:27;3.60;;;3.30;;
8488;SDS011;4281;45.772;12.852;2023-06-14T05:18:56;3.93;;;3.23;;
8488;SDS011;4281;45.772;12.852;2023-06-14T05:21:24;3.67;;;3.37;;
8488;SDS011;4281;45.772;12.852;2023-06-14T05:23:53;3.77;;;3.40;;
8488;SDS011;4281;45.772;12.852;2023-06-14T05:26:22;4.13;;;3.53;;
8488;SDS011;4281;45.772;12.852;2023-06-14T05:28:54;4.77;;;3.50;;
8488;SDS011;4281;45.772;12.852;2023-06-14T05:31:23;3.67;;;3.37;;
8488;SDS011;4281;45.772;12.852;2023-06-14T05:33:52;4.37;;;3.37;;
8488;SDS011;4281;45.772;12.852;2023-06-14T05:36:20;3.70;;;3.40;;
8488;SDS011;4281;45.772;12.852;2023-06-14T05:38:48;3.97;;;3.57;;
8488;SDS011;4281;45.772;12.852;2023-06-14T05:41:18;4.63;;;3.27;;
8488;SDS011;4281;45.772;12.852;2023-06-14T05:43:47;3.90;;;3.50;;
8488;SDS011;4281;45.772;12.852;2023-06-14T05:46:15;3.87;;;3.57;;
8488;SDS011;4281;45.772;12.852;2023-06-14T05:48:48;3.90;;;3.60;;
8488;SDS011;4281;45.772;12.852;2023-06-14T05:51:16;4.43;;;3.60;;
8488;SDS011;4281;45.772;12.852;2023-06-14T05:53:45;4.00;;;3.63;;
8488;SDS011;4281;45.772;12.852;2023-06-14T05:56:13;3.93;;;3.50;;
8488;SDS011;4281;45.772;12.852;2023-06-14T05:58:43;4.10;;;3.50;;
8488;SDS011;4281;45.772;12.852;2023-06-14T06:01:11;3.50;;;3.30;;
8488;SDS011;4281;45.772;12.852;2023-06-14T06:03:39;4.00;;;3.60;;
8488;SDS011;4281;45.772;12.852;2023-06-14T06:06:12;4.27;;;3.73;;
8488;SDS011;4281;45.772;12.852;2023-06-14T06:08:42;4.30;;;3.80;;
8488;SDS011;4281;45.772;12.852;2023-06-14T06:11:10;3.53;;;3.23;;
8488;SDS011;4281;45.772;12.852;2023-06-14T06:13:38;3.53;;;3.23;;
8488;SDS011;4281;45.772;12.852;2023-06-14T06:16:08;4.37;;;3.63;;
8488;SDS011;4281;45.772;12.852;2023-06-14T06:18:38;3.97;;;3.60;;
8488;SDS011;4281;45.772;12.852;2023-06-14T06:21:08;3.33;;;3.03;;
8488;SDS011;4281;45.772;12.852;2023-06-14T06:23:36;4.00;;;3.70;;
8488;SDS011;4281;45.772;12.852;2023-06-14T06:26:04;4.47;;;4.00;;
8488;SDS011;4281;45.772;12.852;2023-06-14T06:28:32;5.43;;;3.80;;
8488;SDS011;4281;45.772;12.852;2023-06-14T06:31:00;4.03;;;3.73;;
8488;SDS011;4281;45.772;12.852;2023-06-14T06:33:32;5.30;;;3.83;;
8488;SDS011;4281;45.772;12.852;2023-06-14T06:36:00;3.73;;;3.43;;
8488;SDS011;4281;45.772;12.852;2023-06-14T06:38:28;4.20;;;3.50;;
8488;SDS011;4281;45.772;12.852;2023-06-14T06:40:56;3.67;;;3.37;;
8488;SDS011;4281;45.772;12.852;2023-06-14T06:43:24;3.43;;;3.13;;
8488;SDS011;4281;45.772;12.852;2023-06-14T06:45:52;3.60;;;3.30;;
8488;SDS011;4281;45.772;12.852;2023-06-14T06:48:20;3.43;;;3.13;;
8488;SDS011;4281;45.772;12.852;2023-06-14T06:50:49;4.67;;;3.10;;
8488;SDS011;4281;45.772;12.852;2023-06-14T06:53:18;3.70;;;3.20;;
8488;SDS011;4281;45.772;12.852;2023-06-14T06:56:04;3.40;;;3.17;;
8488;SDS011;4281;45.772;12.852;2023-06-14T06:58:32;3.77;;;3.40;;
8488;SDS011;4281;45.772;12.852;2023-06-14T07:01:00;3.30;;;3.00;;
8488;SDS011;4281;45.772;12.852;2023-06-14T07:03:30;3.40;;;3.10;;
8488;SDS011;4281;45.772;12.852;2023-06-14T07:05:59;3.43;;;3.13;;
8488;SDS011;4281;45.772;12.852;2023-06-14T07:08:27;3.67;;;3.33;;
8488;SDS011;4281;45.772;12.852;2023-06-14T07:10:55;3.50;;;3.20;;
8488;SDS011;4281;45.772;12.852;2023-06-14T07:13:23;4.03;;;2.97;;
8488;SDS011;4281;45.772;12.852;2023-06-14T07:15:53;4.33;;;3.00;;
8488;SDS011;4281;45.772;12.852;2023-06-14T07:18:22;3.80;;;3.37;;
8488;SDS011;4281;45.772;12.852;2023-06-14T07:20:50;4.30;;;3.23;;
8488;SDS011;4281;45.772;12.852;2023-06-14T07:23:20;3.23;;;3.03;;
8488;SDS011;4281;45.772;12.852;2023-06-14T07:25:47;3.80;;;3.03;;
8488;SDS011;4281;45.772;12.852;2023-06-14T07:28:16;3.47;;;3.17;;
8488;SDS011;4281;45.772;12.852;2023-06-14T07:30:44;3.50;;;3.20;;
8488;SDS011;4281;45.772;12.852;2023-06-14T07:33:13;3.40;;;3.10;;
8488;SDS011;4281;45.772;12.852;2023-06-14T07:35:41;3.50;;;3.10;;
8488;SDS011;4281;45.772;12.852;2023-06-14T07:38:09;3.50;;;3.20;;
8488;SDS011;4281;45.772;12.852;2023-06-14T07:40:38;3.50;;;2.93;;
8488;SDS011;4281;45.772;12.852;2023-06-14T07:43:06;3.10;;;2.90;;
8488;SDS011;4281;45.772;12.852;2023-06-14T07:45:34;3.60;;;3.30;;
8488;SDS011;4281;45.772;12.852;2023-06-14T07:48:02;3.40;;;3.13;;
8488;SDS011;4281;45.772;12.852;2023-06-14T07:50:30;3.70;;;3.30;;
8488;SDS011;4281;45.772;12.852;2023-06-14T07:52:58;3.30;;;3.10;;
8488;SDS011;4281;45.772;12.852;2023-06-14T07:55:26;3.40;;;3.10;;
8488;SDS011;4281;45.772;12.852;2023-06-14T07:58:06;3.80;;;3.50;;
8488;SDS011;4281;45.772;12.852;2023-06-14T08:00:34;4.20;;;3.80;;
8488;SDS011;4281;45.772;12.852;2023-06-14T08:03:02;3.60;;;3.30;;
8488;SDS011;4281;45.772;12.852;2023-06-14T08:05:31;3.60;;;3.30;;
8488;SDS011;4281;45.772;12.852;2023-06-14T08:07:59;4.20;;;3.50;;
8488;SDS011;4281;45.772;12.852;2023-06-14T08:10:27;3.60;;;3.30;;
8488;SDS011;4281;45.772;12.852;2023-06-14T08:12:55;3.47;;;3.13;;
8488;SDS011;4281;45.772;12.852;2023-06-14T08:15:24;3.40;;;3.10;;
8488;SDS011;4281;45.772;12.852;2023-06-14T08:17:52;4.63;;;3.30;;
8488;SDS011;4281;45.772;12.852;2023-06-14T08:20:20;3.50;;;3.20;;
8488;SDS011;4281;45.772;12.852;2023-06-14T08:22:48;3.63;;;3.33;;
8488;SDS011;4281;45.772;12.852;2023-06-14T08:25:16;3.60;;;3.07;;
8488;SDS011;4281;45.772;12.852;2023-06-14T08:27:44;4.10;;;3.70;;
8488;SDS011;4281;45.772;12.852;2023-06-14T08:30:13;3.93;;;3.40;;
8488;SDS011;4281;45.772;12.852;2023-06-14T08:32:42;3.50;;;3.20;;
8488;SDS011;4281;45.772;12.852;2023-06-14T08:35:10;4.13;;;3.10;;
8488;SDS011;4281;45.772;12.852;2023-06-14T08:37:40;2.93;;;2.73;;
8488;SDS011;4281;45.772;12.852;2023-06-14T08:40:12;4.47;;;3.37;;
8488;SDS011;4281;45.772;12.852;2023-06-14T08:42:46;3.90;;;3.07;;
8488;SDS011;4281;45.772;12.852;2023-06-14T08:45:15;5.63;;;3.60;;
8488;SDS011;4281;45.772;12.852;2023-06-14T08:47:45;3.63;;;3.27;;
8488;SDS011;4281;45.772;12.852;2023-06-14T08:50:19;3.70;;;3.40;;
8488;SDS011;4281;45.772;12.852;2023-06-14T08:52:55;3.47;;;3.17;;
8488;SDS011;4281;45.772;12.852;2023-06-14T08:55:23;3.63;;;3.33;;
8488;SDS011;4281;45.772;12.852;2023-06-14T08:57:54;5.20;;;3.30;;
8488;SDS011;4281;45.772;12.852;2023-06-14T09:00:24;4.70;;;3.70;;
8488;SDS011;4281;45.772;12.852;2023-06-14T09:02:53;3.20;;;2.90;;
8488;SDS011;4281;45.772;12.852;2023-06-14T09:05:25;3.77;;;3.43;;
8488;SDS011;4281;45.772;12.852;2023-06-14T09:07:53;4.60;;;3.10;;
8488;SDS011;4281;45.772;12.852;2023-06-14T09:10:23;4.00;;;3.40;;
8488;SDS011;4281;45.772;12.852;2023-06-14T09:12:53;3.77;;;3.47;;
8488;SDS011;4281;45.772;12.852;2023-06-14T09:15:21;3.53;;;3.23;;
8488;SDS011;4281;45.772;12.852;2023-06-14T09:17:49;3.47;;;3.13;;
8488;SDS011;4281;45.772;12.852;2023-06-14T09:20:19;3.47;;;3.20;;
8488;SDS011;4281;45.772;12.852;2023-06-14T09:22:47;3.80;;;3.40;;
8488;SDS011;4281;45.772;12.852;2023-06-14T09:25:15;2.93;;;2.63;;
8488;SDS011;4281;45.772;12.852;2023-06-14T09:28:05;3.90;;;3.60;;
8488;SDS011;4281;45.772;12.852;2023-06-14T09:30:35;3.43;;;3.13;;
8488;SDS011;4281;45.772;12.852;2023-06-14T09:33:03;3.83;;;3.53;;
8488;SDS011;4281;45.772;12.852;2023-06-14T09:35:32;3.90;;;3.60;;
8488;SDS011;4281;45.772;12.852;2023-06-14T09:38:00;4.00;;;3.70;;
8488;SDS011;4281;45.772;12.852;2023-06-14T09:40:29;4.17;;;3.83;;
8488;SDS011;4281;45.772;12.852;2023-06-14T09:43:02;3.43;;;3.13;;
8488;SDS011;4281;45.772;12.852;2023-06-14T09:45:32;3.40;;;3.10;;
8488;SDS011;4281;45.772;12.852;2023-06-14T09:48:02;3.93;;;3.63;;
8488;SDS011;4281;45.772;12.852;2023-06-14T09:50:35;4.00;;;3.63;;
8488;SDS011;4281;45.772;12.852;2023-06-14T09:53:04;3.80;;;3.40;;
8488;SDS011;4281;45.772;12.852;2023-06-14T09:55:34;3.90;;;3.50;;
8488;SDS011;4281;45.772;12.852;2023-06-14T09:58:04;4.73;;;3.50;;
8488;SDS011;4281;45.772;12.852;2023-06-14T10:00:35;4.27;;;3.63;;
8488;SDS011;4281;45.772;12.852;2023-06-14T10:03:06;3.90;;;3.60;;
8488;SDS011;4281;45.772;12.852;2023-06-14T10:05:43;4.17;;;3.80;;
8488;SDS011;4281;45.772;12.852;2023-06-14T10:08:13;4.87;;;4.47;;
8488;SDS011;4281;45.772;12.852;2023-06-14T10:10:43;4.00;;;3.70;;
8488;SDS011;4281;45.772;12.852;2023-06-14T10:13:11;3.83;;;3.63;;
8488;SDS011;4281;45.772;12.852;2023-06-14T10:15:41;3.80;;;3.50;;
8488;SDS011;4281;45.772;12.852;2023-06-14T10:18:14;3.83;;;3.27;;
8488;SDS011;4281;45.772;12.852;2023-06-14T10:20:51;3.73;;;3.43;;
8488;SDS011;4281;45.772;12.852;2023-06-14T10:23:23;3.93;;;3.63;;
8488;SDS011;4281;45.772;12.852;2023-06-14T10:25:54;4.30;;;3.80;;
8488;SDS011;4281;45.772;12.852;2023-06-14T10:28:23;4.33;;;3.60;;
8488;SDS011;4281;45.772;12.852;2023-06-14T10:31:02;4.00;;;3.70;;
8488;SDS011;4281;45.772;12.852;2023-06-14T10:33:34;3.80;;;3.50;;
8488;SDS011;4281;45.772;12.852;2023-06-14T10:39:01;4.13;;;3.83;;
8488;SDS011;4281;45.772;12.852;2023-06-14T10:41:34;4.07;;;3.70;;
8488;SDS011;4281;45.772;12.852;2023-06-14T10:47:29;3.60;;;3.33;;
8488;SDS011;4281;45.772;12.852;2023-06-14T10:50:02;4.20;;;3.80;;
8488;SDS011;4281;45.772;12.852;2023-06-14T10:52:34;4.40;;;4.00;;
8488;SDS011;4281;45.772;12.852;2023-06-14T10:55:03;3.63;;;3.33;;
8488;SDS011;4281;45.772;12.852;2023-06-14T10:57:36;3.87;;;3.57;;
8488;SDS011;4281;45.772;12.852;2023-06-14T11:00:18;3.73;;;3.27;;
8488;SDS011;4281;45.772;12.852;2023-06-14T11:02:57;3.53;;;3.27;;
8488;SDS011;4281;45.772;12.852;2023-06-14T11:05:48;3.57;;;3.27;;
8488;SDS011;4281;45.772;12.852;2023-06-14T11:11:15;4.10;;;3.80;;
8488;SDS011;4281;45.772;12.852;2023-06-14T11:13:43;3.57;;;3.37;;
8488;SDS011;4281;45.772;12.852;2023-06-14T11:16:15;3.63;;;3.33;;
8488;SDS011;4281;45.772;12.852;2023-06-14T11:18:45;3.70;;;3.50;;
8488;SDS011;4281;45.772;12.852;2023-06-14T11:21:15;4.03;;;3.57;;
8488;SDS011;4281;45.772;12.852;2023-06-14T11:23:50;3.87;;;3.57;;
8488;SDS011;4281;45.772;12.852;2023-06-14T11:26:25;4.10;;;3.80;;
8488;SDS011;4281;45.772;12.852;2023-06-14T11:28:55;3.67;;;3.33;;
8488;SDS011;4281;45.772;12.852;2023-06-14T11:31:24;4.70;;;4.03;;
8488;SDS011;4281;45.772;12.852;2023-06-14T11:33:53;3.77;;;3.43;;
8488;SDS011;4281;45.772;12.852;2023-06-14T11:36:22;4.03;;;3.67;;
8488;SDS011;4281;45.772;12.852;2023-06-14T11:38:51;4.30;;;3.90;;
8488;SDS011;4281;45.772;12.852;2023-06-14T11:41:26;3.93;;;3.63;;
8488;SDS011;4281;45.772;12.852;2023-06-14T11:43:59;4.00;;;3.70;;
8488;SDS011;4281;45.772;12.852;2023-06-14T11:46:28;4.63;;;4.23;;
8488;SDS011;4281;45.772;12.852;2023-06-14T11:48:56;4.20;;;3.83;;
8488;SDS011;4281;45.772;12.852;2023-06-14T11:51:24;4.20;;;3.80;;
8488;SDS011;4281;45.772;12.852;2023-06-14T11:53:53;5.07;;;4.10;;
8488;SDS011;4281;45.772;12.852;2023-06-14T11:56:22;3.90;;;3.60;;
8488;SDS011;4281;45.772;12.852;2023-06-14T11:58:50;4.00;;;3.60;;
8488;SDS011;4281;45.772;12.852;2023-06-14T12:01:18;4.10;;;3.70;;
8488;SDS011;4281;45.772;12.852;2023-06-14T12:03:47;4.00;;;3.70;;
8488;SDS011;4281;45.772;12.852;2023-06-14T12:06:15;4.33;;;3.77;;
8488;SDS011;4281;45.772;12.852;2023-06-14T12:08:45;4.27;;;3.97;;
8488;SDS011;4281;45.772;12.852;2023-06-14T12:11:17;4.30;;;4.00;;
8488;SDS011;4281;45.772;12.852;2023-06-14T12:13:45;4.10;;;3.80;;
8488;SDS011;4281;45.772;12.852;2023-06-14T12:16:12;5.20;;;4.00;;
8488;SDS011;4281;45.772;12.852;2023-06-14T12:18:41;4.03;;;3.63;;
8488;SDS011;4281;45.772;12.852;2023-06-14T12:21:10;4.20;;;3.70;;
8488;SDS011;4281;45.772;12.852;2023-06-14T12:23:38;4.50;;;3.70;;
8488;SDS011;4281;45.772;12.852;2023-06-14T12:26:07;4.33;;;3.93;;
8488;SDS011;4281;45.772;12.852;2023-06-14T12:28:39;3.87;;;3.57;;
8488;SDS011;4281;45.772;12.852;2023-06-14T12:31:07;3.53;;;3.30;;
8488;SDS011;4281;45.772;12.852;2023-06-14T12:33:37;4.00;;;3.60;;
8488;SDS011;4281;45.772;12.852;2023-06-14T12:36:06;4.20;;;3.80;;
8488;SDS011;4281;45.772;12.852;2023-06-14T12:38:35;3.70;;;3.40;;
8488;SDS011;4281;45.772;12.852;2023-06-14T12:41:03;3.50;;;3.27;;
8488;SDS011;4281;45.772;12.852;2023-06-14T12:43:32;4.10;;;3.70;;
8488;SDS011;4281;45.772;12.852;2023-06-14T12:46:01;3.73;;;3.17;;
8488;SDS011;4281;45.772;12.852;2023-06-14T12:48:29;3.93;;;3.63;;
8488;SDS011;4281;45.772;12.852;2023-06-14T12:50:57;3.83;;;3.53;;
8488;SDS011;4281;45.772;12.852;2023-06-14T12:53:25;4.40;;;3.80;;
8488;SDS011;4281;45.772;12.852;2023-06-14T12:55:53;4.30;;;3.90;;
8488;SDS011;4281;45.772;12.852;2023-06-14T12:58:22;5.03;;;3.93;;
8488;SDS011;4281;45.772;12.852;2023-06-14T13:00:50;3.80;;;3.57;;
8488;SDS011;4281;45.772;12.852;2023-06-14T13:03:19;4.30;;;4.00;;
8488;SDS011;4281;45.772;12.852;2023-06-14T13:05:47;5.43;;;3.70;;
8488;SDS011;4281;45.772;12.852;2023-06-14T13:08:16;4.23;;;3.80;;
8488;SDS011;4281;45.772;12.852;2023-06-14T13:10:44;4.17;;;3.77;;
8488;SDS011;4281;45.772;12.852;2023-06-14T13:13:12;4.90;;;4.40;;
8488;SDS011;4281;45.772;12.852;2023-06-14T13:15:40;4.17;;;3.87;;
8488;SDS011;4281;45.772;12.852;2023-06-14T13:18:08;3.63;;;3.43;;
8488;SDS011;4281;45.772;12.852;2023-06-14T13:20:39;3.87;;;3.57;;
8488;SDS011;4281;45.772;12.852;2023-06-14T13:23:07;4.30;;;3.90;;
8488;SDS011;4281;45.772;12.852;2023-06-14T13:25:36;3.80;;;3.50;;
8488;SDS011;4281;45.772;12.852;2023-06-14T13:28:04;3.67;;;3.43;;
8488;SDS011;4281;45.772;12.852;2023-06-14T13:30:33;4.80;;;3.97;;
8488;SDS011;4281;45.772;12.852;2023-06-14T13:33:01;4.27;;;3.90;;
8488;SDS011;4281;45.772;12.852;2023-06-14T13:35:29;4.20;;;3.80;;
8488;SDS011;4281;45.772;12.852;2023-06-14T13:37:58;4.20;;;3.90;;
8488;SDS011;4281;45.772;12.852;2023-06-14T13:40:26;3.90;;;3.60;;
8488;SDS011;4281;45.772;12.852;2023-06-14T13:42:54;3.83;;;3.53;;
8488;SDS011;4281;45.772;12.852;2023-06-14T13:45:22;3.77;;;3.47;;
8488;SDS011;4281;45.772;12.852;2023-06-14T13:47:50;3.50;;;3.30;;
8488;SDS011;4281;45.772;12.852;2023-06-14T13:50:18;4.00;;;3.67;;
8488;SDS011;4281;45.772;12.852;2023-06-14T13:52:46;3.87;;;3.57;;
8488;SDS011;4281;45.772;12.852;2023-06-14T13:55:16;3.47;;;3.17;;
8488;SDS011;4281;45.772;12.852;2023-06-14T13:57:44;4.93;;;3.90;;
8488;SDS011;4281;45.772;12.852;2023-06-14T14:00:12;3.80;;;3.50;;
8488;SDS011;4281;45.772;12.852;2023-06-14T14:02:41;3.70;;;3.40;;
8488;SDS011;4281;45.772;12.852;2023-06-14T14:05:10;3.80;;;3.50;;
8488;SDS011;4281;45.772;12.852;2023-06-14T14:07:38;3.50;;;3.20;;
8488;SDS011;4281;45.772;12.852;2023-06-14T14:10:06;3.80;;;3.43;;
8488;SDS011;4281;45.772;12.852;2023-06-14T14:12:36;3.57;;;3.27;;
8488;SDS011;4281;45.772;12.852;2023-06-14T14:15:05;3.60;;;3.27;;
8488;SDS011;4281;45.772;12.852;2023-06-14T14:17:39;3.47;;;3.20;;
8488;SDS011;4281;45.772;12.852;2023-06-14T14:20:08;3.30;;;3.00;;
8488;SDS011;4281;45.772;12.852;2023-06-14T14:22:39;3.87;;;3.53;;
8488;SDS011;4281;45.772;12.852;2023-06-14T14:25:07;4.27;;;3.87;;
8488;SDS011;4281;45.772;12.852;2023-06-14T14:27:37;3.87;;;3.43;;
8488;SDS011;4281;45.772;12.852;2023-06-14T14:30:06;3.10;;;2.90;;
8488;SDS011;4281;45.772;12.852;2023-06-14T14:32:35;3.90;;;3.20;;
8488;SDS011;4281;45.772;12.852;2023-06-14T14:35:05;3.10;;;2.90;;
8488;SDS011;4281;45.772;12.852;2023-06-14T14:37:33;3.10;;;2.90;;
8488;SDS011;4281;45.772;12.852;2023-06-14T14:40:01;3.03;;;2.73;;
8488;SDS011;4281;45.772;12.852;2023-06-14T14:42:30;3.00;;;2.80;;
8488;SDS011;4281;45.772;12.852;2023-06-14T14:44:59;3.77;;;2.97;;
8488;SDS011;4281;45.772;12.852;2023-06-14T14:47:27;3.10;;;2.90;;
8488;SDS011;4281;45.772;12.852;2023-06-14T14:49:56;2.97;;;2.77;;
8488;SDS011;4281;45.772;12.852;2023-06-14T14:52:24;3.10;;;2.90;;
8488;SDS011;4281;45.772;12.852;2023-06-14T14:54:53;2.97;;;2.60;;
8488;SDS011;4281;45.772;12.852;2023-06-14T14:57:21;3.10;;;2.90;;
8488;SDS011;4281;45.772;12.852;2023-06-14T14:59:49;3.17;;;2.87;;
8488;SDS011;4281;45.772;12.852;2023-06-14T15:02:18;2.87;;;2.67;;
8488;SDS011;4281;45.772;12.852;2023-06-14T15:04:46;2.80;;;2.60;;
8488;SDS011;4281;45.772;12.852;2023-06-14T15:07:14;2.80;;;2.60;;
8488;SDS011;4281;45.772;12.852;2023-06-14T15:09:42;3.37;;;3.07;;
8488;SDS011;4281;45.772;12.852;2023-06-14T15:12:10;2.97;;;2.77;;
8488;SDS011;4281;45.772;12.852;2023-06-14T15:14:38;3.10;;;2.90;;
8488;SDS011;4281;45.772;12.852;2023-06-14T15:17:06;3.63;;;2.93;;
8488;SDS011;4281;45.772;12.852;2023-06-14T15:19:36;3.07;;;2.77;;
8488;SDS011;4281;45.772;12.852;2023-06-14T15:22:04;3.30;;;3.00;;